createdAt,value
2022-12-29T00:00:20.606Z,70.12
2022-12-29T00:02:48.041Z,70.10
2022-12-29T00:05:15.426Z,70.28
2022-12-29T00:07:42.473Z,70.33
2022-12-29T00:10:09.677Z,70.14
2022-12-29T00:12:55.686Z,70.04
2022-12-29T00:15:37.877Z,70.06
2022-12-29T00:18:05.318Z,70.43
2022-12-29T00:20:57.367Z,70.13
2022-12-29T00:23:57.326Z,69.87
2022-12-29T00:26:43.193Z,70.18
2022-12-29T00:29:28.713Z,70.09
2022-12-29T00:32:14.088Z,70.12
2022-12-29T00:34:59.659Z,70.15
2022-12-29T00:37:46.927Z,70.24
2022-12-29T00:40:32.782Z,70.47
2022-12-29T00:43:19.229Z,70.27
2022-12-29T00:45:46.320Z,70.57
2022-12-29T00:48:13.359Z,70.41
2022-12-29T00:50:41.066Z,70.57
2022-12-29T00:53:08.093Z,70.52
2022-12-29T00:55:38.451Z,70.23
2022-12-29T00:58:05.490Z,70.33
2022-12-29T01:00:32.575Z,70.24
2022-12-29T01:02:59.805Z,70.14
2022-12-29T01:05:27.053Z,70.00
2022-12-29T01:07:54.218Z,70.03
2022-12-29T01:10:21.302Z,69.95
2022-12-29T01:12:48.581Z,70.05
2022-12-29T01:15:16.216Z,69.67
2022-12-29T01:17:43.753Z,69.47
2022-12-29T01:20:12.165Z,69.00
2022-12-29T01:22:39.524Z,68.87
2022-12-29T01:25:07.672Z,68.91
2022-12-29T01:27:35.374Z,69.06
2022-12-29T01:30:02.472Z,69.03
2022-12-29T01:32:31.390Z,69.03
2022-12-29T01:34:59.229Z,69.04
2022-12-29T01:37:26.664Z,68.85
2022-12-29T01:39:53.763Z,68.87
2022-12-29T01:42:25.268Z,68.38
2022-12-29T01:44:57.222Z,68.77
2022-12-29T01:47:37.430Z,68.10
2022-12-29T01:50:19.098Z,67.36
2022-12-29T01:53:03.019Z,68.12
2022-12-29T01:55:33.978Z,68.48
2022-12-29T01:58:05.632Z,68.08
2022-12-29T02:00:32.874Z,68.16
2022-12-29T02:03:00.065Z,67.92
2022-12-29T02:05:39.140Z,67.87
2022-12-29T02:08:06.889Z,68.00
2022-12-29T02:10:36.633Z,67.99
2022-12-29T02:13:04.414Z,67.59
2022-12-29T02:16:22.192Z,67.18
2022-12-29T02:18:55.277Z,67.51
2022-12-29T02:22:02.066Z,66.23
2022-12-29T02:25:00.843Z,66.92
2022-12-29T02:27:55.391Z,66.69
2022-12-29T02:30:34.249Z,66.72
2022-12-29T02:33:10.402Z,67.25
2022-12-29T02:35:50.789Z,67.42
2022-12-29T02:38:29.883Z,66.93
2022-12-29T02:41:15.491Z,66.94
2022-12-29T02:43:48.463Z,67.59
2022-12-29T02:47:02.328Z,66.89
2022-12-29T02:50:11.783Z,67.13
2022-12-29T02:52:50.804Z,67.67
2022-12-29T02:55:18.034Z,67.17
2022-12-29T02:57:48.367Z,67.81
2022-12-29T03:00:19.098Z,67.36
2022-12-29T03:02:54.672Z,67.30
2022-12-29T03:05:43.377Z,67.49
2022-12-29T03:08:32.133Z,66.94
2022-12-29T03:11:05.751Z,67.82
2022-12-29T03:14:00.991Z,67.75
2022-12-29T03:16:31.087Z,68.08
2022-12-29T03:19:31.908Z,67.56
2022-12-29T03:22:22.835Z,67.93
2022-12-29T03:25:00.833Z,67.77
2022-12-29T03:27:33.999Z,67.74
2022-12-29T03:30:06.869Z,67.60
2022-12-29T03:32:45.240Z,68.04
2022-12-29T03:35:18.274Z,67.93
2022-12-29T03:38:07.512Z,68.19
2022-12-29T03:40:39.663Z,67.78
2022-12-29T03:43:06.962Z,68.02
2022-12-29T03:45:36.538Z,67.96
2022-12-29T03:48:04.087Z,68.22
2022-12-29T03:50:32.586Z,67.90
2022-12-29T03:52:59.667Z,67.92
2022-12-29T03:55:28.239Z,67.77
2022-12-29T03:57:55.387Z,67.99
2022-12-29T04:00:35.624Z,68.06
2022-12-29T04:03:03.317Z,67.78
2022-12-29T04:05:30.567Z,68.22
2022-12-29T04:07:57.647Z,68.16
2022-12-29T04:10:24.960Z,67.93
2022-12-29T04:12:56.103Z,68.21
2022-12-29T04:15:25.412Z,67.90
2022-12-29T04:17:52.962Z,67.88
2022-12-29T04:20:38.590Z,67.75
2022-12-29T04:23:08.483Z,67.94
2022-12-29T04:25:36.771Z,68.37
2022-12-29T04:28:04.239Z,67.96
2022-12-29T04:30:45.750Z,68.39
2022-12-29T04:33:18.832Z,68.46
2022-12-29T04:35:47.484Z,67.78
2022-12-29T04:38:15.169Z,68.13
2022-12-29T04:40:44.075Z,68.09
2022-12-29T04:43:12.486Z,67.75
2022-12-29T04:45:58.136Z,68.40
2022-12-29T04:48:29.693Z,67.84
2022-12-29T04:51:10.836Z,68.08
2022-12-29T04:53:40.221Z,68.11
2022-12-29T04:56:10.240Z,68.63
2022-12-29T04:58:38.304Z,68.04
2022-12-29T05:01:07.136Z,68.39
2022-12-29T05:03:35.200Z,67.94
2022-12-29T05:06:02.465Z,68.54
2022-12-29T05:08:29.779Z,68.40
2022-12-29T05:10:59.805Z,68.29
2022-12-29T05:13:27.788Z,67.75
2022-12-29T05:15:55.227Z,68.12
2022-12-29T05:18:24.287Z,68.33
2022-12-29T05:20:51.972Z,67.92
2022-12-29T05:23:21.198Z,68.12
2022-12-29T05:25:55.414Z,68.58
2022-12-29T05:28:42.760Z,68.42
2022-12-29T05:31:14.016Z,68.31
2022-12-29T05:33:41.234Z,68.68
2022-12-29T05:36:10.581Z,68.71
2022-12-29T05:38:42.147Z,68.60
2022-12-29T05:41:09.546Z,68.12
2022-12-29T05:43:43.071Z,68.63
2022-12-29T05:46:30.691Z,68.45
2022-12-29T05:49:17.170Z,68.09
2022-12-29T05:52:02.141Z,68.35
2022-12-29T05:54:29.664Z,68.27
2022-12-29T05:56:58.585Z,68.16
2022-12-29T05:59:25.760Z,68.25
2022-12-29T06:01:54.289Z,68.03
2022-12-29T06:04:21.455Z,67.99
2022-12-29T06:06:49.192Z,68.02
2022-12-29T06:09:35.368Z,68.11
2022-12-29T06:12:04.329Z,68.64
2022-12-29T06:14:31.456Z,68.16
2022-12-29T06:16:59.866Z,68.59
2022-12-29T06:19:28.926Z,68.05
2022-12-29T06:21:56.165Z,67.96
2022-12-29T06:24:23.385Z,68.65
2022-12-29T06:26:50.438Z,68.37
2022-12-29T06:29:19.151Z,68.01
2022-12-29T06:31:46.816Z,68.37
2022-12-29T06:34:14.359Z,68.29
2022-12-29T06:36:41.829Z,67.51
2022-12-29T06:39:09.059Z,68.02
2022-12-29T06:41:36.339Z,67.75
2022-12-29T06:44:22.913Z,68.00
2022-12-29T06:47:02.355Z,68.06
2022-12-29T06:49:29.596Z,67.68
2022-12-29T06:51:56.793Z,67.94
2022-12-29T06:54:23.827Z,67.78
2022-12-29T06:56:50.906Z,68.09
2022-12-29T06:59:17.907Z,68.22
2022-12-29T07:01:45.067Z,68.15
2022-12-29T07:04:12.221Z,67.91
2022-12-29T07:06:54.961Z,68.17
2022-12-29T07:09:21.998Z,67.91
2022-12-29T07:11:48.940Z,67.80
2022-12-29T07:14:15.883Z,67.88
2022-12-29T07:16:42.882Z,68.13
2022-12-29T07:19:10.069Z,68.19
2022-12-29T07:21:37.100Z,68.36
2022-12-29T07:24:04.396Z,67.76
2022-12-29T07:26:36.087Z,68.46
2022-12-29T07:29:04.816Z,67.84
2022-12-29T07:31:32.339Z,67.60
2022-12-29T07:33:59.364Z,67.66
2022-12-29T07:36:32.379Z,67.35
2022-12-29T07:39:01.338Z,67.15
2022-12-29T07:41:30.860Z,66.90
2022-12-29T07:44:00.256Z,66.58
2022-12-29T07:46:57.560Z,67.28
2022-12-29T07:49:24.659Z,67.00
2022-12-29T07:51:51.718Z,67.14
2022-12-29T07:54:24.206Z,67.40
2022-12-29T07:56:51.876Z,67.32
2022-12-29T07:59:19.152Z,67.00
2022-12-29T08:01:46.252Z,66.39
2022-12-29T08:04:13.409Z,66.85
2022-12-29T08:06:40.432Z,66.43
2022-12-29T08:09:13.634Z,66.63
2022-12-29T08:11:44.515Z,67.00
2022-12-29T08:14:11.893Z,66.58
2022-12-29T08:16:39.138Z,66.50
2022-12-29T08:19:06.196Z,66.47
2022-12-29T08:21:33.359Z,66.62
2022-12-29T08:24:00.421Z,66.71
2022-12-29T08:26:27.519Z,66.44
2022-12-29T08:28:55.532Z,66.39
2022-12-29T08:31:23.552Z,66.50
2022-12-29T08:33:50.656Z,66.95
2022-12-29T08:36:17.930Z,66.71
2022-12-29T08:38:45.030Z,66.58
2022-12-29T08:41:11.982Z,66.30
2022-12-29T08:43:38.977Z,66.14
2022-12-29T08:46:06.074Z,65.48
2022-12-29T08:48:33.092Z,65.03
2022-12-29T08:51:00.134Z,65.28
2022-12-29T08:53:27.190Z,65.46
2022-12-29T08:56:04.698Z,65.63
2022-12-29T08:58:40.819Z,65.68
2022-12-29T09:01:10.687Z,66.12
2022-12-29T09:04:12.960Z,65.69
2022-12-29T09:06:25.371Z,65.29
2022-12-29T09:08:55.478Z,65.55
2022-12-29T09:11:25.008Z,65.07
2022-12-29T09:13:53.642Z,65.16
2022-12-29T09:16:23.416Z,64.83
2022-12-29T09:18:51.762Z,65.08
2022-12-29T09:21:18.961Z,65.30
2022-12-29T09:23:45.922Z,65.05
2022-12-29T09:26:12.895Z,65.02
2022-12-29T09:28:39.935Z,65.15
2022-12-29T09:31:07.327Z,65.12
2022-12-29T09:33:37.054Z,64.58
2022-12-29T09:36:04.564Z,64.90
2022-12-29T09:38:31.940Z,64.76
2022-12-29T09:41:29.312Z,64.76
2022-12-29T09:44:18.684Z,64.42
2022-12-29T09:46:50.042Z,64.67
2022-12-29T09:49:42.210Z,64.19
2022-12-29T09:52:26.885Z,64.59
2022-12-29T09:55:03.146Z,64.09
2022-12-29T09:57:37.231Z,64.50
2022-12-29T10:00:12.520Z,64.37
2022-12-29T10:03:04.052Z,64.16
2022-12-29T10:06:02.151Z,64.08
2022-12-29T10:08:38.695Z,64.25
2022-12-29T10:11:17.571Z,64.11
2022-12-29T10:14:10.887Z,63.89
2022-12-29T10:17:04.182Z,63.57
2022-12-29T10:19:35.387Z,63.79
2022-12-29T10:22:05.319Z,63.79
2022-12-29T10:24:36.056Z,64.09
2022-12-29T10:27:04.399Z,63.39
2022-12-29T10:29:37.942Z,63.52
2022-12-29T10:32:32.762Z,63.96
2022-12-29T10:35:22.134Z,63.99
2022-12-29T10:38:36.836Z,63.67
2022-12-29T10:41:14.223Z,64.36
2022-12-29T10:43:49.394Z,64.54
2022-12-29T10:46:30.803Z,64.30
2022-12-29T10:48:57.815Z,64.43
2022-12-29T10:51:35.005Z,65.13
2022-12-29T10:54:11.034Z,65.16
2022-12-29T10:56:46.032Z,64.87
2022-12-29T10:59:24.998Z,65.22
2022-12-29T11:02:11.629Z,64.86
2022-12-29T11:05:22.001Z,64.44
2022-12-29T11:07:55.050Z,64.81
2022-12-29T11:10:31.574Z,65.02
2022-12-29T11:13:02.109Z,64.81
2022-12-29T11:15:39.118Z,64.84
2022-12-29T11:18:05.962Z,64.32
2022-12-29T11:20:38.855Z,64.71
2022-12-29T11:23:32.687Z,64.84
2022-12-29T11:26:11.443Z,64.51
2022-12-29T11:28:39.869Z,64.50
2022-12-29T11:31:08.883Z,64.66
2022-12-29T11:33:37.736Z,64.77
2022-12-29T11:36:25.611Z,64.59
2022-12-29T11:38:55.930Z,65.02
2022-12-29T11:41:32.084Z,65.10
2022-12-29T11:44:02.375Z,64.82
2022-12-29T11:46:33.634Z,64.71
2022-12-29T11:49:01.860Z,64.55
2022-12-29T11:51:40.182Z,64.51
2022-12-29T11:54:07.430Z,64.43
2022-12-29T11:56:44.065Z,65.14
2022-12-29T11:59:31.001Z,65.53
2022-12-29T12:02:00.165Z,65.54
2022-12-29T12:04:35.753Z,65.28
2022-12-29T12:07:28.701Z,65.65
2022-12-29T12:10:06.996Z,65.36
2022-12-29T12:13:03.115Z,65.09
2022-12-29T12:15:45.885Z,65.36
2022-12-29T12:18:22.812Z,65.06
2022-12-29T12:21:08.082Z,65.42
2022-12-29T12:23:59.632Z,64.99
2022-12-29T12:26:40.489Z,64.92
2022-12-29T12:29:25.725Z,64.90
2022-12-29T12:32:02.779Z,64.84
2022-12-29T12:34:40.827Z,64.71
2022-12-29T12:37:36.528Z,65.19
2022-12-29T12:40:29.185Z,65.27
2022-12-29T12:43:33.522Z,65.67
2022-12-29T12:46:12.454Z,65.98
2022-12-29T12:49:15.045Z,65.57
2022-12-29T12:51:56.095Z,65.83
2022-12-29T12:54:43.687Z,65.67
2022-12-29T12:57:56.671Z,65.56
2022-12-29T13:00:24.497Z,66.23
2022-12-29T13:03:29.807Z,66.09
2022-12-29T13:06:18.292Z,66.35
2022-12-29T13:09:12.472Z,66.48
2022-12-29T13:12:07.808Z,66.30
2022-12-29T13:15:00.783Z,66.08
2022-12-29T13:17:38.382Z,65.77
2022-12-29T13:20:23.719Z,66.62
2022-12-29T13:22:53.788Z,66.64
2022-12-29T13:25:43.955Z,66.92
2022-12-29T13:28:26.277Z,66.33
2022-12-29T13:31:11.954Z,66.70
2022-12-29T13:33:50.041Z,66.31
2022-12-29T13:36:22.950Z,67.59
2022-12-29T13:38:57.203Z,67.63
2022-12-29T13:41:41.476Z,67.58
2022-12-29T13:44:16.043Z,67.30
2022-12-29T13:46:47.745Z,66.86
2022-12-29T13:49:22.003Z,66.75
2022-12-29T13:51:59.056Z,67.64
2022-12-29T13:54:34.917Z,67.95
2022-12-29T13:57:27.639Z,67.82
2022-12-29T14:00:05.260Z,67.42
2022-12-29T14:03:03.063Z,67.42
2022-12-29T14:05:32.734Z,67.32
2022-12-29T14:08:02.621Z,67.63
2022-12-29T14:10:36.926Z,67.79
2022-12-29T14:13:16.188Z,67.89
2022-12-29T14:15:52.075Z,67.97
2022-12-29T14:18:32.915Z,68.09
2022-12-29T14:21:08.414Z,68.48
2022-12-29T14:23:35.580Z,68.09
2022-12-29T14:26:08.297Z,67.60
2022-12-29T14:28:40.666Z,68.47
2022-12-29T14:31:19.841Z,68.94
2022-12-29T14:34:09.810Z,68.16
2022-12-29T14:36:38.752Z,67.71
2022-12-29T14:39:32.026Z,68.69
2022-12-29T14:42:11.071Z,68.32
2022-12-29T14:44:58.886Z,68.22
2022-12-29T14:47:31.617Z,68.44
2022-12-29T14:50:09.800Z,68.59
2022-12-29T14:52:50.513Z,68.16
2022-12-29T14:55:18.307Z,68.02
2022-12-29T14:57:50.859Z,68.30
2022-12-29T15:00:30.900Z,68.00
2022-12-29T15:03:08.657Z,68.45
2022-12-29T15:05:52.451Z,68.52
2022-12-29T15:08:32.783Z,68.42
2022-12-29T15:11:04.254Z,68.21
2022-12-29T15:13:37.532Z,68.02
2022-12-29T15:16:05.736Z,68.42
2022-12-29T15:18:34.545Z,68.50
2022-12-29T15:21:06.356Z,68.25
2022-12-29T15:23:36.035Z,68.17
2022-12-29T15:26:06.684Z,68.39
2022-12-29T15:28:45.927Z,68.05
2022-12-29T15:31:16.518Z,68.04
2022-12-29T15:33:48.548Z,67.52
2022-12-29T15:36:27.753Z,67.73
2022-12-29T15:38:55.771Z,68.10
2022-12-29T15:41:33.651Z,67.65
2022-12-29T15:44:07.024Z,67.54
2022-12-29T15:46:34.214Z,67.17
2022-12-29T15:49:06.846Z,67.42
2022-12-29T15:51:39.756Z,67.26
2022-12-29T15:54:13.638Z,67.23
2022-12-29T15:56:42.918Z,67.30
2022-12-29T15:59:46.790Z,67.25
2022-12-29T16:02:13.903Z,67.04
2022-12-29T16:05:09.303Z,67.24
2022-12-29T16:07:40.789Z,67.16
2022-12-29T16:10:43.398Z,66.62
2022-12-29T16:13:19.463Z,67.02
2022-12-29T16:15:48.249Z,67.93
2022-12-29T16:18:28.149Z,68.15
2022-12-29T16:20:56.785Z,68.31
2022-12-29T16:23:27.213Z,68.50
2022-12-29T16:25:58.697Z,69.38
2022-12-29T16:28:37.282Z,69.17
2022-12-29T16:31:17.496Z,68.83
2022-12-29T16:33:50.116Z,69.12
2022-12-29T16:36:35.327Z,69.25
2022-12-29T16:39:27.548Z,68.59
2022-12-29T16:41:56.032Z,69.37
2022-12-29T16:44:24.440Z,69.08
2022-12-29T16:47:19.750Z,68.92
2022-12-29T16:49:52.965Z,68.62
2022-12-29T16:52:31.139Z,68.04
2022-12-29T16:55:03.308Z,68.29
2022-12-29T16:57:36.251Z,69.52
2022-12-29T17:00:09.143Z,69.20
2022-12-29T17:02:45.742Z,68.83
2022-12-29T17:05:15.493Z,68.73
2022-12-29T17:07:42.524Z,69.23
2022-12-29T17:10:09.905Z,69.24
2022-12-29T17:12:37.776Z,69.69
2022-12-29T17:15:35.238Z,69.85
2022-12-29T17:18:02.492Z,70.32
2022-12-29T17:20:31.823Z,70.12
2022-12-29T17:23:00.286Z,69.59
2022-12-29T17:25:32.325Z,70.17
2022-12-29T17:28:03.408Z,70.32
2022-12-29T17:30:34.133Z,70.30
2022-12-29T17:33:02.986Z,70.78
2022-12-29T17:35:30.305Z,70.67
2022-12-29T17:37:57.350Z,70.30
2022-12-29T17:40:30.325Z,70.15
2022-12-29T17:42:59.287Z,70.33
2022-12-29T17:45:27.808Z,70.41
2022-12-29T17:47:55.960Z,69.57
2022-12-29T17:50:27.360Z,70.05
2022-12-29T17:53:00.766Z,69.58
2022-12-29T17:55:36.749Z,69.50
2022-12-29T17:58:15.320Z,69.70
2022-12-29T18:00:42.300Z,69.67
2022-12-29T18:03:17.485Z,70.23
2022-12-29T18:05:45.086Z,69.97
2022-12-29T18:08:12.965Z,69.89
2022-12-29T18:10:40.233Z,70.15
2022-12-29T18:13:07.841Z,69.96
2022-12-29T18:15:36.685Z,70.41
2022-12-29T18:18:12.604Z,70.85
2022-12-29T18:20:41.530Z,70.43
2022-12-29T18:23:24.276Z,70.47
2022-12-29T18:26:00.249Z,70.80
2022-12-29T18:28:28.461Z,70.68
2022-12-29T18:31:00.379Z,70.13
2022-12-29T18:33:28.421Z,69.97
2022-12-29T18:36:04.763Z,70.12
2022-12-29T18:38:32.356Z,70.26
2022-12-29T18:41:00.209Z,70.72
2022-12-29T18:43:27.242Z,70.20
2022-12-29T18:45:54.232Z,70.07
2022-12-29T18:48:22.028Z,69.30
2022-12-29T18:50:53.398Z,70.48
2022-12-29T18:53:25.079Z,70.22
2022-12-29T18:55:53.276Z,69.86
2022-12-29T18:58:20.611Z,69.85
2022-12-29T19:00:47.700Z,69.89
2022-12-29T19:03:16.683Z,70.02
2022-12-29T19:05:45.723Z,69.84
2022-12-29T19:08:13.948Z,69.45
2022-12-29T19:10:42.084Z,69.66
2022-12-29T19:13:21.232Z,69.41
2022-12-29T19:15:48.227Z,69.64
2022-12-29T19:21:08.263Z,70.27
2022-12-29T19:23:35.276Z,69.82
2022-12-29T19:26:02.255Z,70.07
2022-12-29T19:28:30.047Z,69.99
2022-12-29T19:31:02.939Z,70.36
2022-12-29T19:33:30.187Z,69.73
2022-12-29T19:36:01.884Z,69.87
2022-12-29T19:38:29.166Z,70.18
2022-12-29T19:40:56.550Z,69.98
2022-12-29T19:43:23.694Z,69.82
2022-12-29T19:45:52.553Z,70.03
2022-12-29T19:48:20.963Z,69.58
2022-12-29T19:50:48.037Z,69.80
2022-12-29T19:53:15.533Z,70.28
2022-12-29T19:55:46.544Z,70.09
2022-12-29T19:58:14.244Z,69.58
2022-12-29T20:00:42.595Z,69.53
2022-12-29T20:03:09.958Z,69.26
2022-12-29T20:05:37.582Z,69.21
2022-12-29T20:08:04.956Z,69.18
2022-12-29T20:10:32.052Z,69.16
2022-12-29T20:12:59.088Z,69.55
2022-12-29T20:15:26.132Z,70.07
2022-12-29T20:20:40.179Z,70.90
2022-12-29T20:23:07.342Z,70.25
2022-12-29T20:25:49.623Z,69.94
2022-12-29T20:28:17.109Z,70.01
2022-12-29T20:30:44.663Z,69.72
2022-12-29T20:33:11.796Z,70.73
2022-12-29T20:35:38.772Z,70.39
2022-12-29T20:38:05.837Z,69.96
2022-12-29T20:40:32.896Z,70.14
2022-12-29T20:42:59.908Z,70.49
2022-12-29T20:45:27.160Z,70.68
2022-12-29T20:47:54.921Z,70.22
2022-12-29T20:50:22.007Z,70.15
2022-12-29T20:52:49.146Z,70.96
2022-12-29T20:55:16.101Z,70.84
2022-12-29T20:58:22.591Z,71.14
2022-12-29T21:00:31.795Z,71.61
2022-12-29T21:03:00.075Z,71.33
2022-12-29T21:05:28.275Z,71.42
2022-12-29T21:07:56.288Z,71.43
2022-12-29T21:10:23.314Z,70.67
2022-12-29T21:12:50.432Z,70.88
2022-12-29T21:15:17.544Z,70.46
2022-12-29T21:17:45.432Z,70.68
2022-12-29T21:20:29.893Z,70.50
2022-12-29T21:22:59.883Z,70.77
2022-12-29T21:25:39.497Z,71.65
2022-12-29T21:28:09.245Z,71.08
2022-12-29T21:30:36.337Z,70.96
2022-12-29T21:33:03.542Z,72.08
2022-12-29T21:35:30.967Z,71.63
2022-12-29T21:37:57.925Z,72.15
2022-12-29T21:40:24.918Z,72.37
2022-12-29T21:42:51.998Z,72.17
2022-12-29T21:45:25.064Z,72.38
2022-12-29T21:48:18.282Z,72.41
2022-12-29T21:51:06.486Z,72.77
2022-12-29T21:53:39.916Z,72.68
2022-12-29T21:56:18.257Z,72.91
2022-12-29T21:59:05.726Z,72.74
2022-12-29T22:01:54.144Z,73.06
2022-12-29T22:04:42.692Z,73.30
2022-12-29T22:07:29.888Z,72.68
2022-12-29T22:10:15.695Z,72.69
2022-12-29T22:13:01.049Z,72.50
2022-12-29T22:15:33.404Z,72.69
2022-12-29T22:18:01.458Z,73.11
2022-12-29T22:20:31.419Z,72.71
2022-12-29T22:22:59.023Z,72.73
2022-12-29T22:25:26.097Z,72.22
2022-12-29T22:27:58.752Z,72.88
2022-12-29T22:30:28.078Z,72.65
2022-12-29T22:32:56.927Z,72.43
2022-12-29T22:35:24.902Z,71.83
2022-12-29T22:37:51.957Z,71.85
2022-12-29T22:40:19.117Z,71.91
2022-12-29T22:42:46.226Z,72.31
2022-12-29T22:45:13.273Z,72.53
2022-12-29T22:47:40.372Z,71.83
2022-12-29T22:50:07.671Z,71.70
2022-12-29T22:52:34.692Z,72.14
2022-12-29T22:55:06.416Z,71.46
2022-12-29T22:57:34.363Z,71.06
2022-12-29T23:00:01.362Z,71.05
2022-12-29T23:02:28.577Z,71.44
2022-12-29T23:05:04.647Z,71.64
2022-12-29T23:07:32.675Z,71.93
2022-12-29T23:09:59.754Z,72.18
2022-12-29T23:12:30.313Z,71.76
2022-12-29T23:14:57.332Z,71.26
2022-12-29T23:17:25.425Z,71.39
2022-12-29T23:19:54.081Z,71.59
2022-12-29T23:22:21.240Z,71.69
2022-12-29T23:24:48.282Z,71.45
2022-12-29T23:27:15.284Z,71.45
2022-12-29T23:29:42.256Z,71.60
2022-12-29T23:32:09.358Z,71.72
2022-12-29T23:34:36.331Z,71.22
2022-12-29T23:37:03.401Z,71.20
2022-12-29T23:39:30.787Z,71.48
2022-12-29T23:41:58.202Z,71.32
2022-12-29T23:44:25.236Z,72.05
2022-12-29T23:46:52.287Z,71.82
2022-12-29T23:49:19.315Z,72.23
2022-12-29T23:51:46.295Z,71.47
2022-12-29T23:54:13.410Z,71.64
2022-12-29T23:56:40.383Z,71.28
2022-12-29T23:59:07.691Z,71.61
